ARG1603 SAZM-SABE
Flight info
| Callsign | ARG1603 |
|---|---|
| Flight time | N/A |
| Altitude | 31000 |
| Route | PULPA1C PULPA UW31 TENIL TENIL8R |
| Aircraft | B738/M-SDFGHILORVW/S |
Departure
| Time | 2026-05-07 02:50 |
|---|---|
| Airport | Ástor Piazzola International Airport (SAZM) |
Arrival
| Time | N/A |
|---|---|
| Airport | Aeroparque Jorge Newbery (SABE) |
| Time | Latitude | Longitude | Altitude | Speed | Heading |
|---|---|---|---|---|---|
| 2026-05-07 02:23 | -37.93386 | -57.58079 | 65 ft | 0 kts | 359° |
| 2026-05-07 02:42 | -37.93378 | -57.58076 | 65 ft | 2 kts | 24° |
| 2026-05-07 02:42 | -37.93359 | -57.58051 | 65 ft | 5 kts | 50° |
| 2026-05-07 02:42 | -37.93319 | -57.58023 | 65 ft | 6 kts | 5° |
| 2026-05-07 02:42 | -37.93282 | -57.58032 | 65 ft | 3 kts | 335° |
| 2026-05-07 02:43 | -37.93279 | -57.58034 | 65 ft | 0 kts | 335° |
| 2026-05-07 02:44 | -37.93267 | -57.58041 | 65 ft | 3 kts | 335° |
| 2026-05-07 02:44 | -37.93233 | -57.58038 | 65 ft | 6 kts | 26° |
| 2026-05-07 02:44 | -37.93208 | -57.58019 | 65 ft | 0 kts | 33° |
| 2026-05-07 02:46 | -37.93197 | -57.58010 | 65 ft | 4 kts | 33° |
| 2026-05-07 02:47 | -37.93150 | -57.57972 | 65 ft | 11 kts | 32° |
| 2026-05-07 02:47 | -37.93084 | -57.57985 | 65 ft | 9 kts | 311° |
| 2026-05-07 02:47 | -37.93042 | -57.58070 | 65 ft | 14 kts | 302° |
| 2026-05-07 02:47 | -37.92973 | -57.58208 | 65 ft | 22 kts | 303° |
| 2026-05-07 02:48 | -37.92934 | -57.58339 | 65 ft | 11 kts | 285° |
| 2026-05-07 02:48 | -37.92908 | -57.58358 | 65 ft | 2 kts | 64° |
| 2026-05-07 02:48 | -37.92912 | -57.58332 | 65 ft | 3 kts | 112° |
| 2026-05-07 02:48 | -37.92916 | -57.58321 | 65 ft | 0 kts | 121° |
| 2026-05-07 02:49 | -37.92939 | -57.58275 | 65 ft | 28 kts | 122° |
| 2026-05-07 02:50 | -37.93179 | -57.57801 | 62 ft | 97 kts | 122° |
| 2026-05-07 02:50 | -37.93652 | -57.56876 | 66 ft | 151 kts | 123° |
| 2026-05-07 02:50 | -37.94214 | -57.55784 | 717 ft | 149 kts | 122° |
| 2026-05-07 02:50 | -37.94776 | -57.54641 | 1288 ft | 154 kts | 122° |
| 2026-05-07 02:51 | -37.95254 | -57.53396 | 1678 ft | 164 kts | 105° |
| 2026-05-07 02:51 | -37.95054 | -57.51933 | 1936 ft | 188 kts | 60° |
| 2026-05-07 02:51 | -37.93916 | -57.50846 | 1992 ft | 231 kts | 21° |
| 2026-05-07 02:51 | -37.92227 | -57.50597 | 2369 ft | 255 kts | 4° |
| 2026-05-07 02:52 | -37.90480 | -57.50559 | 3262 ft | 251 kts | 6° |
| 2026-05-07 02:52 | -37.88682 | -57.50378 | 3585 ft | 272 kts | 7° |
| 2026-05-07 02:52 | -37.86759 | -57.50185 | 4244 ft | 279 kts | 6° |
| 2026-05-07 02:52 | -37.84822 | -57.50014 | 4926 ft | 284 kts | 6° |
| 2026-05-07 02:53 | -37.82843 | -57.49897 | 5639 ft | 288 kts | 358° |
| 2026-05-07 02:53 | -37.80873 | -57.50300 | 6390 ft | 290 kts | 347° |
| 2026-05-07 02:53 | -37.78893 | -57.50834 | 7151 ft | 293 kts | 349° |
| 2026-05-07 02:53 | -37.76890 | -57.51298 | 7911 ft | 295 kts | 349° |
| 2026-05-07 02:54 | -37.74876 | -57.51751 | 8677 ft | 297 kts | 349° |
| 2026-05-07 02:54 | -37.72854 | -57.52203 | 9445 ft | 299 kts | 349° |
| 2026-05-07 02:54 | -37.70799 | -57.52657 | 9980 ft | 310 kts | 349° |
| 2026-05-07 02:54 | -37.68578 | -57.53147 | 10044 ft | 334 kts | 349° |
| 2026-05-07 02:55 | -37.66859 | -57.53523 | 10188 ft | 348 kts | 349° |
| 2026-05-07 02:55 | -37.64400 | -57.54060 | 10494 ft | 362 kts | 349° |
| 2026-05-07 02:55 | -37.61931 | -57.54598 | 11089 ft | 366 kts | 349° |
| 2026-05-07 02:55 | -37.59987 | -57.55021 | 11551 ft | 369 kts | 349° |
| 2026-05-07 02:56 | -37.57471 | -57.55569 | 12208 ft | 371 kts | 349° |
| 2026-05-07 02:56 | -37.54912 | -57.56126 | 12899 ft | 375 kts | 349° |
| 2026-05-07 02:56 | -37.52298 | -57.56694 | 13581 ft | 379 kts | 348° |
| 2026-05-07 02:56 | -37.49707 | -57.57258 | 14253 ft | 383 kts | 348° |
| 2026-05-07 02:57 | -37.47055 | -57.57834 | 14924 ft | 386 kts | 348° |
| 2026-05-07 02:57 | -37.44405 | -57.58409 | 15572 ft | 390 kts | 348° |
| 2026-05-07 02:57 | -37.41722 | -57.58991 | 16207 ft | 393 kts | 348° |
| 2026-05-07 02:57 | -37.39013 | -57.59578 | 16818 ft | 397 kts | 348° |
| 2026-05-07 02:58 | -37.36258 | -57.60174 | 17426 ft | 400 kts | 348° |
| 2026-05-07 02:58 | -37.33524 | -57.60766 | 18010 ft | 403 kts | 348° |
| 2026-05-07 02:58 | -37.30708 | -57.61352 | 18636 ft | 405 kts | 348° |
| 2026-05-07 02:58 | -37.27942 | -57.61927 | 19123 ft | 410 kts | 348° |
| 2026-05-07 02:59 | -37.25137 | -57.62545 | 19667 ft | 413 kts | 347° |
| 2026-05-07 02:59 | -37.22289 | -57.63174 | 20186 ft | 416 kts | 347° |
| 2026-05-07 02:59 | -37.19452 | -57.63791 | 20693 ft | 418 kts | 347° |
| 2026-05-07 02:59 | -37.16552 | -57.64418 | 21178 ft | 421 kts | 347° |
| 2026-05-07 03:00 | -37.13644 | -57.65047 | 21660 ft | 424 kts | 347° |
| 2026-05-07 03:00 | -37.10715 | -57.65679 | 22116 ft | 427 kts | 347° |
| 2026-05-07 03:00 | -37.07769 | -57.66313 | 22582 ft | 429 kts | 347° |
| 2026-05-07 03:00 | -37.04829 | -57.66944 | 23264 ft | 425 kts | 347° |
| 2026-05-07 03:01 | -37.01927 | -57.67566 | 23842 ft | 424 kts | 347° |
| 2026-05-07 03:01 | -36.99005 | -57.68183 | 24418 ft | 423 kts | 348° |
| 2026-05-07 03:01 | -36.96112 | -57.68588 | 24953 ft | 424 kts | 352° |
| 2026-05-07 03:01 | -36.93155 | -57.68842 | 25525 ft | 422 kts | 352° |
| 2026-05-07 03:02 | -36.90261 | -57.69112 | 26058 ft | 420 kts | 352° |
| 2026-05-07 03:02 | -36.87338 | -57.69418 | 26527 ft | 418 kts | 351° |
| 2026-05-07 03:02 | -36.84458 | -57.69723 | 26582 ft | 424 kts | 351° |
| 2026-05-07 03:02 | -36.81472 | -57.70036 | 26587 ft | 423 kts | 351° |
| 2026-05-07 03:03 | -36.78556 | -57.70339 | 26588 ft | 419 kts | 351° |
| 2026-05-07 03:03 | -36.75659 | -57.70644 | 26588 ft | 418 kts | 351° |
| 2026-05-07 03:03 | -36.72757 | -57.70951 | 26588 ft | 418 kts | 351° |
| 2026-05-07 03:03 | -36.69875 | -57.71256 | 26588 ft | 418 kts | 351° |
| 2026-05-07 03:04 | -36.66992 | -57.71562 | 26588 ft | 418 kts | 351° |
| 2026-05-07 03:04 | -36.64069 | -57.71872 | 26588 ft | 419 kts | 351° |
| 2026-05-07 03:04 | -36.61186 | -57.72177 | 26587 ft | 419 kts | 351° |
| 2026-05-07 03:04 | -36.58271 | -57.72486 | 26585 ft | 416 kts | 351° |
| 2026-05-07 03:05 | -36.55397 | -57.72787 | 26588 ft | 406 kts | 351° |
| 2026-05-07 03:05 | -36.52612 | -57.73080 | 26589 ft | 402 kts | 351° |
| 2026-05-07 03:05 | -36.50463 | -57.73310 | 26588 ft | 404 kts | 351° |
| 2026-05-07 03:05 | -36.47699 | -57.73605 | 26617 ft | 409 kts | 351° |
| 2026-05-07 03:06 | -36.44803 | -57.73912 | 26615 ft | 411 kts | 351° |
| 2026-05-07 03:06 | -36.41990 | -57.74209 | 26614 ft | 410 kts | 351° |
| 2026-05-07 03:06 | -36.39128 | -57.74510 | 26614 ft | 409 kts | 351° |
| 2026-05-07 03:06 | -36.36265 | -57.74812 | 26614 ft | 409 kts | 351° |
| 2026-05-07 03:07 | -36.33479 | -57.75113 | 26629 ft | 407 kts | 354° |
| 2026-05-07 03:07 | -36.32548 | -57.75217 | 26760 ft | 401 kts | 355° |
| 2026-05-07 03:07 | -36.29762 | -57.75521 | 26667 ft | 409 kts | 351° |
| 2026-05-07 03:07 | -36.26910 | -57.75840 | 26626 ft | 409 kts | 351° |
| 2026-05-07 03:08 | -36.24073 | -57.76059 | 26610 ft | 411 kts | 357° |
| 2026-05-07 03:08 | -36.21237 | -57.75706 | 26618 ft | 416 kts | 6° |
| 2026-05-07 03:08 | -36.18382 | -57.75095 | 26614 ft | 416 kts | 6° |
| 2026-05-07 03:08 | -36.15523 | -57.74499 | 26614 ft | 417 kts | 7° |
| 2026-05-07 03:09 | -36.12712 | -57.73679 | 26616 ft | 419 kts | 12° |
| 2026-05-07 03:09 | -36.09911 | -57.72674 | 26615 ft | 419 kts | 13° |
| 2026-05-07 03:09 | -36.07098 | -57.71677 | 26614 ft | 419 kts | 12° |
| 2026-05-07 03:09 | -36.04285 | -57.70701 | 26614 ft | 419 kts | 12° |
| 2026-05-07 03:10 | -36.01465 | -57.69724 | 26614 ft | 419 kts | 12° |
| 2026-05-07 03:10 | -35.98646 | -57.68747 | 26614 ft | 419 kts | 12° |
| 2026-05-07 03:10 | -35.95829 | -57.67773 | 26615 ft | 419 kts | 12° |
| 2026-05-07 03:10 | -35.93061 | -57.66818 | 26614 ft | 419 kts | 12° |
| 2026-05-07 03:11 | -35.90238 | -57.65846 | 26614 ft | 419 kts | 12° |
| 2026-05-07 03:11 | -35.87796 | -57.65007 | 26615 ft | 419 kts | 12° |
| 2026-05-07 03:11 | -35.86112 | -57.64430 | 26614 ft | 419 kts | 12° |
| 2026-05-07 03:11 | -35.84371 | -57.63833 | 26555 ft | 421 kts | 12° |
| 2026-05-07 03:12 | -35.81533 | -57.62865 | 26297 ft | 422 kts | 12° |
| 2026-05-07 03:12 | -35.79511 | -57.62178 | 26116 ft | 419 kts | 12° |
| 2026-05-07 03:12 | -35.76710 | -57.61231 | 25864 ft | 417 kts | 12° |
| 2026-05-07 03:12 | -35.73897 | -57.60286 | 25614 ft | 417 kts | 12° |
| 2026-05-07 03:13 | -35.72933 | -57.59964 | 25512 ft | 418 kts | 12° |